sensor_id;sensor_type;location;lat;lon;timestamp;temperature;humidity
17701;DHT22;8969;48.576;12.580;2024-01-30T00:01:40;-0.90;99.90
17701;DHT22;8969;48.576;12.580;2024-01-30T00:04:08;-0.90;99.90
17701;DHT22;8969;48.576;12.580;2024-01-30T00:06:37;-0.90;99.90
17701;DHT22;8969;48.576;12.580;2024-01-30T00:09:05;-0.90;99.90
17701;DHT22;8969;48.576;12.580;2024-01-30T00:11:33;-0.90;99.90
17701;DHT22;8969;48.576;12.580;2024-01-30T00:14:02;-1.00;99.90
17701;DHT22;8969;48.576;12.580;2024-01-30T00:16:31;-1.00;99.90
17701;DHT22;8969;48.576;12.580;2024-01-30T00:18:59;-1.00;99.90
17701;DHT22;8969;48.576;12.580;2024-01-30T00:21:29;-1.00;99.90
17701;DHT22;8969;48.576;12.580;2024-01-30T00:23:57;-1.10;99.90
17701;DHT22;8969;48.576;12.580;2024-01-30T00:26:25;-1.10;99.90
17701;DHT22;8969;48.576;12.580;2024-01-30T00:28:53;-1.00;99.90
17701;DHT22;8969;48.576;12.580;2024-01-30T00:31:22;-1.00;99.90
17701;DHT22;8969;48.576;12.580;2024-01-30T00:33:51;-1.10;99.90
17701;DHT22;8969;48.576;12.580;2024-01-30T00:36:19;-1.10;99.90
17701;DHT22;8969;48.576;12.580;2024-01-30T00:38:47;-1.20;99.90
17701;DHT22;8969;48.576;12.580;2024-01-30T00:41:17;-1.20;99.90
17701;DHT22;8969;48.576;12.580;2024-01-30T00:43:46;-1.20;99.90
17701;DHT22;8969;48.576;12.580;2024-01-30T00:46:14;-1.20;99.90
17701;DHT22;8969;48.576;12.580;2024-01-30T00:48:43;-1.40;99.90
17701;DHT22;8969;48.576;12.580;2024-01-30T00:51:11;-1.30;99.90
17701;DHT22;8969;48.576;12.580;2024-01-30T00:53:39;-1.30;99.90
17701;DHT22;8969;48.576;12.580;2024-01-30T00:56:09;-1.30;99.90
17701;DHT22;8969;48.576;12.580;2024-01-30T00:58:37;-1.20;99.90
17701;DHT22;8969;48.576;12.580;2024-01-30T01:01:05;-1.30;99.90
17701;DHT22;8969;48.576;12.580;2024-01-30T01:03:34;-1.30;99.90
17701;DHT22;8969;48.576;12.580;2024-01-30T01:06:04;-1.30;99.90
17701;DHT22;8969;48.576;12.580;2024-01-30T01:08:32;-1.40;99.90
17701;DHT22;8969;48.576;12.580;2024-01-30T01:11:01;-1.30;99.90
17701;DHT22;8969;48.576;12.580;2024-01-30T01:13:30;-1.40;99.90
17701;DHT22;8969;48.576;12.580;2024-01-30T01:15:58;-1.50;99.90
17701;DHT22;8969;48.576;12.580;2024-01-30T01:18:26;-1.50;99.90
17701;DHT22;8969;48.576;12.580;2024-01-30T01:20:55;-1.50;99.90
17701;DHT22;8969;48.576;12.580;2024-01-30T01:23:24;-1.50;99.90
17701;DHT22;8969;48.576;12.580;2024-01-30T01:25:52;-1.60;99.90
17701;DHT22;8969;48.576;12.580;2024-01-30T01:28:23;-1.60;99.90
17701;DHT22;8969;48.576;12.580;2024-01-30T01:30:51;-1.60;99.90
17701;DHT22;8969;48.576;12.580;2024-01-30T01:33:19;-1.70;99.90
17701;DHT22;8969;48.576;12.580;2024-01-30T01:35:47;-1.60;99.90
17701;DHT22;8969;48.576;12.580;2024-01-30T01:38:15;-1.60;99.90
17701;DHT22;8969;48.576;12.580;2024-01-30T01:40:45;-1.60;99.90
17701;DHT22;8969;48.576;12.580;2024-01-30T01:43:12;-1.60;99.90
17701;DHT22;8969;48.576;12.580;2024-01-30T01:45:41;-1.70;99.90
17701;DHT22;8969;48.576;12.580;2024-01-30T01:48:09;-1.70;99.90
17701;DHT22;8969;48.576;12.580;2024-01-30T01:50:38;-1.70;99.90
17701;DHT22;8969;48.576;12.580;2024-01-30T01:53:07;-1.70;99.90
17701;DHT22;8969;48.576;12.580;2024-01-30T01:55:36;-1.70;99.90
17701;DHT22;8969;48.576;12.580;2024-01-30T01:58:06;-1.70;99.90
17701;DHT22;8969;48.576;12.580;2024-01-30T02:00:36;-1.70;99.90
17701;DHT22;8969;48.576;12.580;2024-01-30T02:03:07;-1.60;99.90
17701;DHT22;8969;48.576;12.580;2024-01-30T02:05:36;-1.70;99.90
17701;DHT22;8969;48.576;12.580;2024-01-30T02:08:05;-1.70;99.90
17701;DHT22;8969;48.576;12.580;2024-01-30T02:10:35;-1.60;99.90
17701;DHT22;8969;48.576;12.580;2024-01-30T02:13:03;-1.70;99.90
17701;DHT22;8969;48.576;12.580;2024-01-30T02:15:33;-1.80;99.90
17701;DHT22;8969;48.576;12.580;2024-01-30T02:18:01;-1.90;99.90
17701;DHT22;8969;48.576;12.580;2024-01-30T02:20:30;-1.90;99.90
17701;DHT22;8969;48.576;12.580;2024-01-30T02:23:01;-1.90;99.90
17701;DHT22;8969;48.576;12.580;2024-01-30T02:25:31;-1.90;99.90
17701;DHT22;8969;48.576;12.580;2024-01-30T02:27:59;-1.90;99.90
17701;DHT22;8969;48.576;12.580;2024-01-30T02:30:27;-1.80;99.90
17701;DHT22;8969;48.576;12.580;2024-01-30T02:32:55;-1.80;99.90
17701;DHT22;8969;48.576;12.580;2024-01-30T02:35:23;-1.90;99.90
17701;DHT22;8969;48.576;12.580;2024-01-30T02:37:53;-1.80;99.90
17701;DHT22;8969;48.576;12.580;2024-01-30T02:40:23;-1.90;99.90
17701;DHT22;8969;48.576;12.580;2024-01-30T02:42:52;-1.80;99.90
17701;DHT22;8969;48.576;12.580;2024-01-30T02:45:20;-1.70;99.90
17701;DHT22;8969;48.576;12.580;2024-01-30T02:47:48;-1.70;99.90
17701;DHT22;8969;48.576;12.580;2024-01-30T02:50:16;-1.70;99.90
17701;DHT22;8969;48.576;12.580;2024-01-30T02:52:44;-1.70;99.90
17701;DHT22;8969;48.576;12.580;2024-01-30T02:55:12;-1.80;99.90
17701;DHT22;8969;48.576;12.580;2024-01-30T02:57:43;-1.80;99.90
17701;DHT22;8969;48.576;12.580;2024-01-30T03:00:12;-1.90;99.90
17701;DHT22;8969;48.576;12.580;2024-01-30T03:02:41;-1.90;99.90
17701;DHT22;8969;48.576;12.580;2024-01-30T03:05:09;-1.90;99.90
17701;DHT22;8969;48.576;12.580;2024-01-30T03:07:37;-1.90;99.90
17701;DHT22;8969;48.576;12.580;2024-01-30T03:10:06;-2.00;99.90
17701;DHT22;8969;48.576;12.580;2024-01-30T03:12:34;-1.90;99.90
17701;DHT22;8969;48.576;12.580;2024-01-30T03:15:04;-1.90;99.90
17701;DHT22;8969;48.576;12.580;2024-01-30T03:17:32;-2.00;99.90
17701;DHT22;8969;48.576;12.580;2024-01-30T03:20:00;-2.00;99.90
17701;DHT22;8969;48.576;12.580;2024-01-30T03:22:28;-2.10;99.90
17701;DHT22;8969;48.576;12.580;2024-01-30T03:24:56;-2.10;99.90
17701;DHT22;8969;48.576;12.580;2024-01-30T03:27:24;-2.00;99.90
17701;DHT22;8969;48.576;12.580;2024-01-30T03:29:52;-2.10;99.90
17701;DHT22;8969;48.576;12.580;2024-01-30T03:32:22;-2.10;99.90
17701;DHT22;8969;48.576;12.580;2024-01-30T03:34:50;-2.10;99.90
17701;DHT22;8969;48.576;12.580;2024-01-30T03:37:19;-2.10;99.90
17701;DHT22;8969;48.576;12.580;2024-01-30T03:39:47;-2.00;99.90
17701;DHT22;8969;48.576;12.580;2024-01-30T03:42:16;-2.10;99.90
17701;DHT22;8969;48.576;12.580;2024-01-30T03:44:45;-2.30;99.90
17701;DHT22;8969;48.576;12.580;2024-01-30T03:47:13;-2.40;99.90
17701;DHT22;8969;48.576;12.580;2024-01-30T03:49:42;-2.30;99.90
17701;DHT22;8969;48.576;12.580;2024-01-30T03:52:10;-2.20;99.90
17701;DHT22;8969;48.576;12.580;2024-01-30T03:54:39;-2.20;99.90
17701;DHT22;8969;48.576;12.580;2024-01-30T03:57:07;-2.20;99.90
17701;DHT22;8969;48.576;12.580;2024-01-30T03:59:35;-2.20;99.90
17701;DHT22;8969;48.576;12.580;2024-01-30T04:02:03;-2.20;99.90
17701;DHT22;8969;48.576;12.580;2024-01-30T04:04:31;-2.20;99.90
17701;DHT22;8969;48.576;12.580;2024-01-30T04:07:01;-2.20;99.90
17701;DHT22;8969;48.576;12.580;2024-01-30T04:09:29;-2.20;99.90
17701;DHT22;8969;48.576;12.580;2024-01-30T04:11:57;-2.20;99.90
17701;DHT22;8969;48.576;12.580;2024-01-30T04:14:25;-2.10;99.90
17701;DHT22;8969;48.576;12.580;2024-01-30T04:16:53;-2.20;99.90
17701;DHT22;8969;48.576;12.580;2024-01-30T04:19:21;-2.10;99.90
17701;DHT22;8969;48.576;12.580;2024-01-30T04:21:50;-2.30;99.90
17701;DHT22;8969;48.576;12.580;2024-01-30T04:24:20;-2.40;99.90
17701;DHT22;8969;48.576;12.580;2024-01-30T04:26:48;-2.40;99.90
17701;DHT22;8969;48.576;12.580;2024-01-30T04:29:16;-2.30;99.90
17701;DHT22;8969;48.576;12.580;2024-01-30T04:31:44;-2.30;99.90
17701;DHT22;8969;48.576;12.580;2024-01-30T04:34:12;-2.30;99.90
17701;DHT22;8969;48.576;12.580;2024-01-30T04:36:44;-2.40;99.90
17701;DHT22;8969;48.576;12.580;2024-01-30T04:39:12;-2.40;99.90
17701;DHT22;8969;48.576;12.580;2024-01-30T04:41:42;-2.50;99.90
17701;DHT22;8969;48.576;12.580;2024-01-30T04:44:10;-2.40;99.90
17701;DHT22;8969;48.576;12.580;2024-01-30T04:46:38;-2.40;99.90
17701;DHT22;8969;48.576;12.580;2024-01-30T04:49:06;-2.30;99.90
17701;DHT22;8969;48.576;12.580;2024-01-30T04:51:36;-2.30;99.90
17701;DHT22;8969;48.576;12.580;2024-01-30T04:54:04;-2.30;99.90
17701;DHT22;8969;48.576;12.580;2024-01-30T04:56:34;-2.30;99.90
17701;DHT22;8969;48.576;12.580;2024-01-30T04:59:04;-2.30;99.90
17701;DHT22;8969;48.576;12.580;2024-01-30T05:01:33;-2.40;99.90
17701;DHT22;8969;48.576;12.580;2024-01-30T05:04:02;-2.30;99.90
17701;DHT22;8969;48.576;12.580;2024-01-30T05:06:31;-2.30;99.90
17701;DHT22;8969;48.576;12.580;2024-01-30T05:08:59;-2.40;99.90
17701;DHT22;8969;48.576;12.580;2024-01-30T05:11:27;-2.40;99.90
17701;DHT22;8969;48.576;12.580;2024-01-30T05:13:55;-2.40;99.90
17701;DHT22;8969;48.576;12.580;2024-01-30T05:16:24;-2.40;99.90
17701;DHT22;8969;48.576;12.580;2024-01-30T05:18:53;-2.50;99.90
17701;DHT22;8969;48.576;12.580;2024-01-30T05:21:21;-2.50;99.90
17701;DHT22;8969;48.576;12.580;2024-01-30T05:23:49;-2.50;99.90
17701;DHT22;8969;48.576;12.580;2024-01-30T05:26:17;-2.50;99.90
17701;DHT22;8969;48.576;12.580;2024-01-30T05:28:45;-2.60;99.90
17701;DHT22;8969;48.576;12.580;2024-01-30T05:31:13;-2.50;99.90
17701;DHT22;8969;48.576;12.580;2024-01-30T05:33:43;-2.60;99.90
17701;DHT22;8969;48.576;12.580;2024-01-30T05:36:12;-2.60;99.90
17701;DHT22;8969;48.576;12.580;2024-01-30T05:38:40;-2.60;99.90
17701;DHT22;8969;48.576;12.580;2024-01-30T05:41:08;-2.60;99.90
17701;DHT22;8969;48.576;12.580;2024-01-30T05:43:37;-2.60;99.90
17701;DHT22;8969;48.576;12.580;2024-01-30T05:46:06;-2.60;99.90
17701;DHT22;8969;48.576;12.580;2024-01-30T05:48:34;-2.60;99.90
17701;DHT22;8969;48.576;12.580;2024-01-30T05:51:04;-2.50;99.90
17701;DHT22;8969;48.576;12.580;2024-01-30T05:53:32;-2.50;99.90
17701;DHT22;8969;48.576;12.580;2024-01-30T05:56:01;-2.60;99.90
17701;DHT22;8969;48.576;12.580;2024-01-30T05:58:30;-2.70;99.90
17701;DHT22;8969;48.576;12.580;2024-01-30T06:00:58;-2.70;99.90
17701;DHT22;8969;48.576;12.580;2024-01-30T06:03:26;-2.60;99.90
17701;DHT22;8969;48.576;12.580;2024-01-30T06:05:55;-2.60;99.90
17701;DHT22;8969;48.576;12.580;2024-01-30T06:08:24;-2.60;99.90
17701;DHT22;8969;48.576;12.580;2024-01-30T06:10:52;-2.60;99.90
17701;DHT22;8969;48.576;12.580;2024-01-30T06:13:21;-2.60;99.90
17701;DHT22;8969;48.576;12.580;2024-01-30T06:15:49;-2.60;99.90
17701;DHT22;8969;48.576;12.580;2024-01-30T06:18:17;-2.60;99.90
17701;DHT22;8969;48.576;12.580;2024-01-30T06:20:46;-2.50;99.90
17701;DHT22;8969;48.576;12.580;2024-01-30T06:23:14;-2.60;99.90
17701;DHT22;8969;48.576;12.580;2024-01-30T06:25:43;-2.60;99.90
17701;DHT22;8969;48.576;12.580;2024-01-30T06:28:11;-2.50;99.90
17701;DHT22;8969;48.576;12.580;2024-01-30T06:30:39;-2.50;99.90
17701;DHT22;8969;48.576;12.580;2024-01-30T06:33:07;-2.60;99.90
17701;DHT22;8969;48.576;12.580;2024-01-30T06:35:35;-2.70;99.90
17701;DHT22;8969;48.576;12.580;2024-01-30T06:38:11;-2.70;99.90
17701;DHT22;8969;48.576;12.580;2024-01-30T06:40:40;-2.60;99.90
17701;DHT22;8969;48.576;12.580;2024-01-30T06:43:09;-2.60;99.90
17701;DHT22;8969;48.576;12.580;2024-01-30T06:45:38;-2.70;99.90
17701;DHT22;8969;48.576;12.580;2024-01-30T06:48:07;-2.70;99.90
17701;DHT22;8969;48.576;12.580;2024-01-30T06:50:35;-2.70;99.90
17701;DHT22;8969;48.576;12.580;2024-01-30T06:53:03;-2.70;99.90
17701;DHT22;8969;48.576;12.580;2024-01-30T06:55:31;-2.70;99.90
17701;DHT22;8969;48.576;12.580;2024-01-30T06:58:00;-2.70;99.90
17701;DHT22;8969;48.576;12.580;2024-01-30T07:00:30;-2.60;99.90
17701;DHT22;8969;48.576;12.580;2024-01-30T07:02:58;-2.60;99.90
17701;DHT22;8969;48.576;12.580;2024-01-30T07:05:26;-2.60;99.90
17701;DHT22;8969;48.576;12.580;2024-01-30T07:07:54;-2.70;99.90
17701;DHT22;8969;48.576;12.580;2024-01-30T07:10:23;-2.70;99.90
17701;DHT22;8969;48.576;12.580;2024-01-30T07:12:51;-2.60;99.90
17701;DHT22;8969;48.576;12.580;2024-01-30T07:15:19;-2.60;99.90
17701;DHT22;8969;48.576;12.580;2024-01-30T07:17:49;-2.50;99.90
17701;DHT22;8969;48.576;12.580;2024-01-30T07:20:17;-2.60;99.90
17701;DHT22;8969;48.576;12.580;2024-01-30T07:22:48;-2.50;99.90
17701;DHT22;8969;48.576;12.580;2024-01-30T07:25:16;-2.40;99.90
17701;DHT22;8969;48.576;12.580;2024-01-30T07:27:44;-2.30;99.90
17701;DHT22;8969;48.576;12.580;2024-01-30T07:30:13;-2.30;99.90
17701;DHT22;8969;48.576;12.580;2024-01-30T07:32:41;-2.20;99.90
17701;DHT22;8969;48.576;12.580;2024-01-30T07:35:13;-2.20;99.90
17701;DHT22;8969;48.576;12.580;2024-01-30T07:37:41;-2.20;99.90
17701;DHT22;8969;48.576;12.580;2024-01-30T07:40:09;-2.10;99.90
17701;DHT22;8969;48.576;12.580;2024-01-30T07:42:38;-2.00;99.90
17701;DHT22;8969;48.576;12.580;2024-01-30T07:45:06;-1.90;99.90
17701;DHT22;8969;48.576;12.580;2024-01-30T07:47:35;-1.80;99.90
17701;DHT22;8969;48.576;12.580;2024-01-30T07:50:04;-1.80;99.90
17701;DHT22;8969;48.576;12.580;2024-01-30T07:52:35;-1.70;99.90
17701;DHT22;8969;48.576;12.580;2024-01-30T07:55:06;-1.60;99.90
17701;DHT22;8969;48.576;12.580;2024-01-30T07:57:38;-1.50;99.90
17701;DHT22;8969;48.576;12.580;2024-01-30T08:00:06;-1.40;99.90
17701;DHT22;8969;48.576;12.580;2024-01-30T08:02:35;-1.40;99.90
17701;DHT22;8969;48.576;12.580;2024-01-30T08:05:03;-1.40;99.90
17701;DHT22;8969;48.576;12.580;2024-01-30T08:07:31;-1.20;99.90
17701;DHT22;8969;48.576;12.580;2024-01-30T08:10:02;-1.20;99.90
17701;DHT22;8969;48.576;12.580;2024-01-30T08:12:31;-1.20;99.90
17701;DHT22;8969;48.576;12.580;2024-01-30T08:14:59;-1.10;99.90
17701;DHT22;8969;48.576;12.580;2024-01-30T08:17:27;-1.00;99.90
17701;DHT22;8969;48.576;12.580;2024-01-30T08:19:55;-1.00;99.90
17701;DHT22;8969;48.576;12.580;2024-01-30T08:22:24;-0.90;99.90
17701;DHT22;8969;48.576;12.580;2024-01-30T08:24:53;-0.80;99.90
17701;DHT22;8969;48.576;12.580;2024-01-30T08:27:22;-0.70;99.90
17701;DHT22;8969;48.576;12.580;2024-01-30T08:29:50;-0.60;99.90
17701;DHT22;8969;48.576;12.580;2024-01-30T08:32:18;-0.50;99.90
17701;DHT22;8969;48.576;12.580;2024-01-30T08:34:46;-0.50;99.90
17701;DHT22;8969;48.576;12.580;2024-01-30T08:37:15;-0.40;99.90
17701;DHT22;8969;48.576;12.580;2024-01-30T08:39:44;-0.30;99.90
17701;DHT22;8969;48.576;12.580;2024-01-30T08:42:13;-0.20;99.90
17701;DHT22;8969;48.576;12.580;2024-01-30T08:44:42;-0.10;99.90
17701;DHT22;8969;48.576;12.580;2024-01-30T08:47:10;-0.10;99.90
17701;DHT22;8969;48.576;12.580;2024-01-30T08:49:39;0.00;99.90
17701;DHT22;8969;48.576;12.580;2024-01-30T08:52:07;0.10;99.90
17701;DHT22;8969;48.576;12.580;2024-01-30T08:54:35;0.20;99.90
17701;DHT22;8969;48.576;12.580;2024-01-30T08:57:03;0.30;99.90
17701;DHT22;8969;48.576;12.580;2024-01-30T08:59:31;0.40;99.90
17701;DHT22;8969;48.576;12.580;2024-01-30T09:02:02;0.40;99.90
17701;DHT22;8969;48.576;12.580;2024-01-30T09:04:38;0.50;99.90
17701;DHT22;8969;48.576;12.580;2024-01-30T09:07:08;0.70;99.90
17701;DHT22;8969;48.576;12.580;2024-01-30T09:09:38;0.70;99.90
17701;DHT22;8969;48.576;12.580;2024-01-30T09:12:07;0.80;99.90
17701;DHT22;8969;48.576;12.580;2024-01-30T09:14:37;0.90;99.90
17701;DHT22;8969;48.576;12.580;2024-01-30T09:17:06;1.00;99.90
17701;DHT22;8969;48.576;12.580;2024-01-30T09:19:35;1.10;99.90
17701;DHT22;8969;48.576;12.580;2024-01-30T09:22:03;1.10;99.90
17701;DHT22;8969;48.576;12.580;2024-01-30T09:24:31;1.20;99.90
17701;DHT22;8969;48.576;12.580;2024-01-30T09:27:00;1.30;99.90
17701;DHT22;8969;48.576;12.580;2024-01-30T09:29:28;1.40;99.90
17701;DHT22;8969;48.576;12.580;2024-01-30T09:31:56;1.50;99.90
17701;DHT22;8969;48.576;12.580;2024-01-30T09:34:26;1.50;99.90
17701;DHT22;8969;48.576;12.580;2024-01-30T09:36:54;1.50;99.90
17701;DHT22;8969;48.576;12.580;2024-01-30T09:39:22;1.60;99.90
17701;DHT22;8969;48.576;12.580;2024-01-30T09:41:55;1.70;99.90
17701;DHT22;8969;48.576;12.580;2024-01-30T09:44:26;1.80;99.90
17701;DHT22;8969;48.576;12.580;2024-01-30T09:46:56;1.90;99.90
17701;DHT22;8969;48.576;12.580;2024-01-30T09:49:27;1.90;99.90
17701;DHT22;8969;48.576;12.580;2024-01-30T09:51:55;1.90;99.90
17701;DHT22;8969;48.576;12.580;2024-01-30T09:54:24;2.00;99.90
17701;DHT22;8969;48.576;12.580;2024-01-30T09:56:52;2.10;99.90
17701;DHT22;8969;48.576;12.580;2024-01-30T09:59:20;2.10;99.90
17701;DHT22;8969;48.576;12.580;2024-01-30T10:01:49;2.20;99.90
17701;DHT22;8969;48.576;12.580;2024-01-30T10:04:18;2.30;99.90
17701;DHT22;8969;48.576;12.580;2024-01-30T10:06:47;2.40;99.90
17701;DHT22;8969;48.576;12.580;2024-01-30T10:09:16;2.40;99.90
17701;DHT22;8969;48.576;12.580;2024-01-30T10:11:44;2.50;99.90
17701;DHT22;8969;48.576;12.580;2024-01-30T10:14:13;2.60;99.90
17701;DHT22;8969;48.576;12.580;2024-01-30T10:16:41;2.60;99.90
17701;DHT22;8969;48.576;12.580;2024-01-30T10:19:09;2.70;99.90
17701;DHT22;8969;48.576;12.580;2024-01-30T10:21:38;2.80;99.90
17701;DHT22;8969;48.576;12.580;2024-01-30T10:24:07;2.80;99.90
17701;DHT22;8969;48.576;12.580;2024-01-30T10:26:38;3.00;99.90
17701;DHT22;8969;48.576;12.580;2024-01-30T10:29:06;3.00;99.90
17701;DHT22;8969;48.576;12.580;2024-01-30T10:31:34;3.10;99.90
17701;DHT22;8969;48.576;12.580;2024-01-30T10:34:03;3.10;99.90
17701;DHT22;8969;48.576;12.580;2024-01-30T10:36:46;3.20;99.90
17701;DHT22;8969;48.576;12.580;2024-01-30T10:39:21;3.30;99.90
17701;DHT22;8969;48.576;12.580;2024-01-30T10:41:53;3.30;99.90
17701;DHT22;8969;48.576;12.580;2024-01-30T10:44:24;3.30;99.90
17701;DHT22;8969;48.576;12.580;2024-01-30T10:47:00;3.30;99.90
17701;DHT22;8969;48.576;12.580;2024-01-30T10:49:31;3.50;99.90
17701;DHT22;8969;48.576;12.580;2024-01-30T10:52:00;3.50;99.90
17701;DHT22;8969;48.576;12.580;2024-01-30T10:54:30;3.50;99.90
17701;DHT22;8969;48.576;12.580;2024-01-30T10:56:59;3.60;99.90
17701;DHT22;8969;48.576;12.580;2024-01-30T10:59:29;3.70;99.90
17701;DHT22;8969;48.576;12.580;2024-01-30T11:01:58;3.70;99.90
17701;DHT22;8969;48.576;12.580;2024-01-30T11:04:26;3.80;99.90
17701;DHT22;8969;48.576;12.580;2024-01-30T11:06:55;3.90;99.90
17701;DHT22;8969;48.576;12.580;2024-01-30T11:09:23;4.00;99.90
17701;DHT22;8969;48.576;12.580;2024-01-30T11:11:56;4.00;99.90
17701;DHT22;8969;48.576;12.580;2024-01-30T11:14:27;4.10;99.90
17701;DHT22;8969;48.576;12.580;2024-01-30T11:16:57;4.20;99.90
17701;DHT22;8969;48.576;12.580;2024-01-30T11:19:27;4.30;99.90
17701;DHT22;8969;48.576;12.580;2024-01-30T11:21:56;4.30;99.90
17701;DHT22;8969;48.576;12.580;2024-01-30T11:24:24;4.30;99.90
17701;DHT22;8969;48.576;12.580;2024-01-30T11:26:57;4.40;99.90
17701;DHT22;8969;48.576;12.580;2024-01-30T11:29:27;4.40;99.90
17701;DHT22;8969;48.576;12.580;2024-01-30T11:31:58;4.40;99.90
17701;DHT22;8969;48.576;12.580;2024-01-30T11:34:26;4.50;99.90
17701;DHT22;8969;48.576;12.580;2024-01-30T11:36:56;4.50;99.90
17701;DHT22;8969;48.576;12.580;2024-01-30T11:39:26;4.60;99.90
17701;DHT22;8969;48.576;12.580;2024-01-30T11:41:56;4.80;99.90
17701;DHT22;8969;48.576;12.580;2024-01-30T11:44:25;4.80;99.90
17701;DHT22;8969;48.576;12.580;2024-01-30T11:46:53;4.90;99.90
17701;DHT22;8969;48.576;12.580;2024-01-30T11:49:21;5.00;99.90
17701;DHT22;8969;48.576;12.580;2024-01-30T11:51:52;5.00;99.90
17701;DHT22;8969;48.576;12.580;2024-01-30T11:54:21;5.10;99.90
17701;DHT22;8969;48.576;12.580;2024-01-30T11:56:49;5.20;99.90
17701;DHT22;8969;48.576;12.580;2024-01-30T11:59:18;5.20;99.90
17701;DHT22;8969;48.576;12.580;2024-01-30T12:01:47;5.30;99.90
17701;DHT22;8969;48.576;12.580;2024-01-30T12:04:15;5.30;99.90
17701;DHT22;8969;48.576;12.580;2024-01-30T12:06:43;5.40;99.90
17701;DHT22;8969;48.576;12.580;2024-01-30T12:09:11;5.40;99.90
17701;DHT22;8969;48.576;12.580;2024-01-30T12:11:44;5.50;99.90
17701;DHT22;8969;48.576;12.580;2024-01-30T12:14:13;5.50;99.90
17701;DHT22;8969;48.576;12.580;2024-01-30T12:16:47;5.60;99.90
17701;DHT22;8969;48.576;12.580;2024-01-30T12:19:21;5.70;99.90
17701;DHT22;8969;48.576;12.580;2024-01-30T12:21:54;5.70;99.90
17701;DHT22;8969;48.576;12.580;2024-01-30T12:24:23;5.70;99.90
17701;DHT22;8969;48.576;12.580;2024-01-30T12:26:51;5.70;99.90
17701;DHT22;8969;48.576;12.580;2024-01-30T12:29:20;5.80;99.90
17701;DHT22;8969;48.576;12.580;2024-01-30T12:31:53;5.80;99.90
17701;DHT22;8969;48.576;12.580;2024-01-30T12:34:21;5.80;99.90
17701;DHT22;8969;48.576;12.580;2024-01-30T12:36:49;5.90;99.90
17701;DHT22;8969;48.576;12.580;2024-01-30T12:39:18;5.90;99.90
17701;DHT22;8969;48.576;12.580;2024-01-30T12:41:47;5.80;99.90
17701;DHT22;8969;48.576;12.580;2024-01-30T12:44:15;5.80;99.90
17701;DHT22;8969;48.576;12.580;2024-01-30T12:46:43;5.90;99.90
17701;DHT22;8969;48.576;12.580;2024-01-30T12:49:16;5.90;99.90
17701;DHT22;8969;48.576;12.580;2024-01-30T12:51:44;5.90;99.90
17701;DHT22;8969;48.576;12.580;2024-01-30T12:54:12;5.90;99.90
17701;DHT22;8969;48.576;12.580;2024-01-30T12:56:41;5.90;99.90
17701;DHT22;8969;48.576;12.580;2024-01-30T12:59:09;6.00;99.90
17701;DHT22;8969;48.576;12.580;2024-01-30T13:01:37;6.00;99.90
17701;DHT22;8969;48.576;12.580;2024-01-30T13:04:05;6.10;99.90
17701;DHT22;8969;48.576;12.580;2024-01-30T13:06:35;6.10;99.90
17701;DHT22;8969;48.576;12.580;2024-01-30T13:09:03;6.10;99.90
17701;DHT22;8969;48.576;12.580;2024-01-30T13:11:32;6.00;99.90
17701;DHT22;8969;48.576;12.580;2024-01-30T13:14:01;6.00;99.90
17701;DHT22;8969;48.576;12.580;2024-01-30T13:16:30;6.00;99.90
17701;DHT22;8969;48.576;12.580;2024-01-30T13:18:58;6.00;99.90
17701;DHT22;8969;48.576;12.580;2024-01-30T13:21:28;6.00;99.90
17701;DHT22;8969;48.576;12.580;2024-01-30T13:23:58;6.00;99.90
17701;DHT22;8969;48.576;12.580;2024-01-30T13:26:26;6.00;99.90
17701;DHT22;8969;48.576;12.580;2024-01-30T13:28:55;6.00;99.90
17701;DHT22;8969;48.576;12.580;2024-01-30T13:31:23;6.10;99.90
17701;DHT22;8969;48.576;12.580;2024-01-30T13:33:51;6.10;99.90
17701;DHT22;8969;48.576;12.580;2024-01-30T13:36:20;6.10;99.90
17701;DHT22;8969;48.576;12.580;2024-01-30T13:38:48;6.10;99.90
17701;DHT22;8969;48.576;12.580;2024-01-30T13:41:18;6.20;99.90
17701;DHT22;8969;48.576;12.580;2024-01-30T13:43:47;6.20;99.90
17701;DHT22;8969;48.576;12.580;2024-01-30T13:46:15;6.20;99.90
17701;DHT22;8969;48.576;12.580;2024-01-30T13:48:44;6.10;99.90
17701;DHT22;8969;48.576;12.580;2024-01-30T13:51:12;6.20;99.90
17701;DHT22;8969;48.576;12.580;2024-01-30T13:53:41;6.40;99.90
17701;DHT22;8969;48.576;12.580;2024-01-30T13:56:09;6.30;99.90
17701;DHT22;8969;48.576;12.580;2024-01-30T13:58:39;6.30;99.90
17701;DHT22;8969;48.576;12.580;2024-01-30T14:01:07;6.30;99.90
17701;DHT22;8969;48.576;12.580;2024-01-30T14:03:37;6.30;99.90
17701;DHT22;8969;48.576;12.580;2024-01-30T14:06:05;6.20;99.90
17701;DHT22;8969;48.576;12.580;2024-01-30T14:08:33;6.30;99.90
17701;DHT22;8969;48.576;12.580;2024-01-30T14:11:02;6.30;99.90
17701;DHT22;8969;48.576;12.580;2024-01-30T14:13:30;6.20;99.90
17701;DHT22;8969;48.576;12.580;2024-01-30T14:16:01;6.20;99.90
17701;DHT22;8969;48.576;12.580;2024-01-30T14:18:31;6.20;99.90
17701;DHT22;8969;48.576;12.580;2024-01-30T14:20:59;6.20;99.90
17701;DHT22;8969;48.576;12.580;2024-01-30T14:23:28;6.20;99.90
17701;DHT22;8969;48.576;12.580;2024-01-30T14:25:56;6.20;99.90
17701;DHT22;8969;48.576;12.580;2024-01-30T14:28:24;6.20;99.90
17701;DHT22;8969;48.576;12.580;2024-01-30T14:30:52;6.10;99.90
17701;DHT22;8969;48.576;12.580;2024-01-30T14:33:21;6.00;99.90
17701;DHT22;8969;48.576;12.580;2024-01-30T14:35:49;5.90;99.90
17701;DHT22;8969;48.576;12.580;2024-01-30T14:38:18;5.90;99.90
17701;DHT22;8969;48.576;12.580;2024-01-30T14:40:46;5.80;99.90
17701;DHT22;8969;48.576;12.580;2024-01-30T14:43:14;5.80;99.90
17701;DHT22;8969;48.576;12.580;2024-01-30T14:45:42;5.80;99.90
17701;DHT22;8969;48.576;12.580;2024-01-30T14:48:12;5.80;99.90
17701;DHT22;8969;48.576;12.580;2024-01-30T14:50:42;5.80;99.90
17701;DHT22;8969;48.576;12.580;2024-01-30T14:53:10;5.70;99.90
17701;DHT22;8969;48.576;12.580;2024-01-30T14:55:38;5.70;99.90
17701;DHT22;8969;48.576;12.580;2024-01-30T14:58:06;5.60;99.90
17701;DHT22;8969;48.576;12.580;2024-01-30T15:00:35;5.60;99.90
17701;DHT22;8969;48.576;12.580;2024-01-30T15:03:05;5.50;99.90
17701;DHT22;8969;48.576;12.580;2024-01-30T15:05:33;5.50;99.90
17701;DHT22;8969;48.576;12.580;2024-01-30T15:08:03;5.40;99.90
17701;DHT22;8969;48.576;12.580;2024-01-30T15:10:32;5.40;99.90
17701;DHT22;8969;48.576;12.580;2024-01-30T15:13:00;5.40;99.90
17701;DHT22;8969;48.576;12.580;2024-01-30T15:15:30;5.30;99.90
17701;DHT22;8969;48.576;12.580;2024-01-30T15:17:58;5.30;99.90
17701;DHT22;8969;48.576;12.580;2024-01-30T15:20:26;5.30;99.90
17701;DHT22;8969;48.576;12.580;2024-01-30T15:22:54;5.20;99.90
17701;DHT22;8969;48.576;12.580;2024-01-30T15:25:24;5.10;99.90
17701;DHT22;8969;48.576;12.580;2024-01-30T15:27:52;5.10;99.90
17701;DHT22;8969;48.576;12.580;2024-01-30T15:30:20;5.10;99.90
17701;DHT22;8969;48.576;12.580;2024-01-30T15:32:48;5.10;99.90
17701;DHT22;8969;48.576;12.580;2024-01-30T15:35:18;5.10;99.90
17701;DHT22;8969;48.576;12.580;2024-01-30T15:37:46;5.00;99.90
17701;DHT22;8969;48.576;12.580;2024-01-30T15:40:14;5.00;99.90
17701;DHT22;8969;48.576;12.580;2024-01-30T15:42:44;5.00;99.90
17701;DHT22;8969;48.576;12.580;2024-01-30T15:45:12;4.90;99.90
17701;DHT22;8969;48.576;12.580;2024-01-30T15:47:41;4.80;99.90